Portada
METAR-TAF:

METAR-TAF

Aeroports :

Shijiazhuang, Xina

latitud: 38-16-51N, longitud: 114-41-48E, altitud: 233 m

Observació

L'informe es va fer fa 52 minuts, a les 09:00 UTC
Vent 8 kt del Sud-Est
Temperatura 36°C
Humitat 22%
Pressió 995 hPa
Visibilitat 10 km o més
sense núvols per sota de 1500 mi sense presència de cumulonimbus.

METAR: ZBSJ 030900Z 14004MPS CAVOK 36/11 Q0995 NOSIG

Hora: 17:52 (09:52 UTC)

Pronòstic

L'informe es va fer fa 6 hores i 46 minuts, a les 03:06 UTC
Pronòstic vàlid del 03 a les 06 UTC al 04 a les 06 UTC
Vent 8 kt del Est/Nord-Est
Visibilitat 10 km o més
sense núvols per sota de 1500 mi sense presència de cumulonimbus.

TAF: ZBSJ 030306Z 0306/0406 06004MPS CAVOK TX38/0307Z TN21/0321Z

Observacions i pronòstics meteorològics de més de 4000 aeroports (METAR i TAF).

Les estacions disponibles són els punts grocs i vermells al mapa.

Posi el ratolí al punt desitjat per veure el nom de l'estació.

Feu clic per veure les observacions i els pronòstics meteorològics.

Per canviar el mapa: feu clic els botons verds amb una creu de color negre per apropar; al botó verd amb un guió per allunyar la imatge; o en les fletxes verdes per a mapes adjacents.


METAR-TAF: